sensor_id;sensor_type;location;lat;lon;timestamp;temperature;humidity
66608;DHT22;53462;39.616;8.824;2022-07-29T00:00:09;24.20;87.00
66608;DHT22;53462;39.616;8.824;2022-07-29T00:02:35;24.10;86.70
66608;DHT22;53462;39.616;8.824;2022-07-29T00:05:02;24.20;86.70
66608;DHT22;53462;39.616;8.824;2022-07-29T00:07:28;24.10;86.90
66608;DHT22;53462;39.616;8.824;2022-07-29T00:09:54;23.90;86.90
66608;DHT22;53462;39.616;8.824;2022-07-29T00:12:22;23.80;87.40
66608;DHT22;53462;39.616;8.824;2022-07-29T00:14:48;23.90;87.20
66608;DHT22;53462;39.616;8.824;2022-07-29T00:17:14;24.00;87.50
66608;DHT22;53462;39.616;8.824;2022-07-29T00:19:40;24.20;88.20
66608;DHT22;53462;39.616;8.824;2022-07-29T00:22:06;24.20;87.50
66608;DHT22;53462;39.616;8.824;2022-07-29T00:24:32;24.20;87.70
66608;DHT22;53462;39.616;8.824;2022-07-29T00:26:58;24.10;87.50
66608;DHT22;53462;39.616;8.824;2022-07-29T00:29:24;24.00;87.60
66608;DHT22;53462;39.616;8.824;2022-07-29T00:31:50;23.90;87.20
66608;DHT22;53462;39.616;8.824;2022-07-29T00:34:16;23.80;87.50
66608;DHT22;53462;39.616;8.824;2022-07-29T00:37:01;23.70;87.70
66608;DHT22;53462;39.616;8.824;2022-07-29T00:39:27;23.70;88.20
66608;DHT22;53462;39.616;8.824;2022-07-29T00:41:53;23.70;88.30
66608;DHT22;53462;39.616;8.824;2022-07-29T00:44:19;23.60;88.90
66608;DHT22;53462;39.616;8.824;2022-07-29T00:46:45;23.50;89.10
66608;DHT22;53462;39.616;8.824;2022-07-29T00:49:11;23.40;89.50
66608;DHT22;53462;39.616;8.824;2022-07-29T00:51:37;23.40;89.30
66608;DHT22;53462;39.616;8.824;2022-07-29T00:54:04;23.50;89.50
66608;DHT22;53462;39.616;8.824;2022-07-29T00:56:32;23.50;89.40
66608;DHT22;53462;39.616;8.824;2022-07-29T00:58:59;23.40;89.30
66608;DHT22;53462;39.616;8.824;2022-07-29T01:01:25;23.40;89.90
66608;DHT22;53462;39.616;8.824;2022-07-29T01:03:52;23.50;91.00
66608;DHT22;53462;39.616;8.824;2022-07-29T01:06:18;23.60;90.60
66608;DHT22;53462;39.616;8.824;2022-07-29T01:08:48;23.50;89.90
66608;DHT22;53462;39.616;8.824;2022-07-29T01:11:15;23.40;90.10
66608;DHT22;53462;39.616;8.824;2022-07-29T01:13:43;23.30;90.70
66608;DHT22;53462;39.616;8.824;2022-07-29T01:16:25;23.20;90.90
66608;DHT22;53462;39.616;8.824;2022-07-29T01:19:00;23.30;91.40
66608;DHT22;53462;39.616;8.824;2022-07-29T01:21:51;23.30;91.40
66608;DHT22;53462;39.616;8.824;2022-07-29T01:25:03;23.40;91.50
66608;DHT22;53462;39.616;8.824;2022-07-29T01:27:52;23.50;91.40
66608;DHT22;53462;39.616;8.824;2022-07-29T01:30:22;23.50;91.10
66608;DHT22;53462;39.616;8.824;2022-07-29T01:32:56;23.60;90.70
66608;DHT22;53462;39.616;8.824;2022-07-29T01:35:27;23.60;90.30
66608;DHT22;53462;39.616;8.824;2022-07-29T01:38:19;23.60;90.00
66608;DHT22;53462;39.616;8.824;2022-07-29T01:40:56;23.60;90.60
66608;DHT22;53462;39.616;8.824;2022-07-29T01:43:44;23.70;90.00
66608;DHT22;53462;39.616;8.824;2022-07-29T01:46:14;23.60;89.90
66608;DHT22;53462;39.616;8.824;2022-07-29T01:48:47;23.60;90.20
66608;DHT22;53462;39.616;8.824;2022-07-29T01:51:16;23.60;89.90
66608;DHT22;53462;39.616;8.824;2022-07-29T01:56:38;23.60;88.50
66608;DHT22;53462;39.616;8.824;2022-07-29T01:59:06;23.50;87.50
66608;DHT22;53462;39.616;8.824;2022-07-29T02:01:34;23.50;87.00
66608;DHT22;53462;39.616;8.824;2022-07-29T02:04:03;23.50;87.40
66608;DHT22;53462;39.616;8.824;2022-07-29T02:06:32;23.60;86.90
66608;DHT22;53462;39.616;8.824;2022-07-29T02:08:59;23.50;86.20
66608;DHT22;53462;39.616;8.824;2022-07-29T02:11:27;23.50;85.50
66608;DHT22;53462;39.616;8.824;2022-07-29T02:13:54;23.30;85.00
66608;DHT22;53462;39.616;8.824;2022-07-29T02:16:22;23.40;85.10
66608;DHT22;53462;39.616;8.824;2022-07-29T02:18:52;23.40;84.60
66608;DHT22;53462;39.616;8.824;2022-07-29T02:21:23;23.40;84.10
66608;DHT22;53462;39.616;8.824;2022-07-29T02:23:51;23.40;83.80
66608;DHT22;53462;39.616;8.824;2022-07-29T02:26:20;23.40;83.40
66608;DHT22;53462;39.616;8.824;2022-07-29T02:28:47;23.40;83.40
66608;DHT22;53462;39.616;8.824;2022-07-29T02:31:16;23.50;83.00
66608;DHT22;53462;39.616;8.824;2022-07-29T02:33:43;23.50;82.80
66608;DHT22;53462;39.616;8.824;2022-07-29T02:36:10;23.40;82.80
66608;DHT22;53462;39.616;8.824;2022-07-29T02:38:36;23.40;82.70
66608;DHT22;53462;39.616;8.824;2022-07-29T02:41:33;23.40;82.20
66608;DHT22;53462;39.616;8.824;2022-07-29T02:44:09;23.40;82.20
66608;DHT22;53462;39.616;8.824;2022-07-29T02:46:37;23.30;81.90
66608;DHT22;53462;39.616;8.824;2022-07-29T02:51:57;23.00;82.60
66608;DHT22;53462;39.616;8.824;2022-07-29T02:54:33;22.80;82.70
66608;DHT22;53462;39.616;8.824;2022-07-29T02:57:09;22.60;83.20
66608;DHT22;53462;39.616;8.824;2022-07-29T02:59:37;22.50;83.60
66608;DHT22;53462;39.616;8.824;2022-07-29T03:02:05;22.60;83.50
66608;DHT22;53462;39.616;8.824;2022-07-29T03:04:34;22.70;83.20
66608;DHT22;53462;39.616;8.824;2022-07-29T03:07:01;22.70;82.30
66608;DHT22;53462;39.616;8.824;2022-07-29T03:09:27;22.70;82.60
66608;DHT22;53462;39.616;8.824;2022-07-29T03:11:55;22.50;82.70
66608;DHT22;53462;39.616;8.824;2022-07-29T03:14:21;22.60;82.80
66608;DHT22;53462;39.616;8.824;2022-07-29T03:16:49;22.80;82.10
66608;DHT22;53462;39.616;8.824;2022-07-29T03:19:16;22.90;81.60
66608;DHT22;53462;39.616;8.824;2022-07-29T03:21:42;22.90;81.30
66608;DHT22;53462;39.616;8.824;2022-07-29T03:24:08;22.70;81.30
66608;DHT22;53462;39.616;8.824;2022-07-29T03:26:34;22.50;82.30
66608;DHT22;53462;39.616;8.824;2022-07-29T03:29:00;22.30;82.40
66608;DHT22;53462;39.616;8.824;2022-07-29T03:31:26;22.20;82.20
66608;DHT22;53462;39.616;8.824;2022-07-29T03:33:52;22.10;82.50
66608;DHT22;53462;39.616;8.824;2022-07-29T03:36:18;22.10;82.80
66608;DHT22;53462;39.616;8.824;2022-07-29T03:38:45;22.00;83.10
66608;DHT22;53462;39.616;8.824;2022-07-29T03:41:13;22.00;83.20
66608;DHT22;53462;39.616;8.824;2022-07-29T03:43:41;22.10;83.40
66608;DHT22;53462;39.616;8.824;2022-07-29T03:46:09;22.30;82.10
66608;DHT22;53462;39.616;8.824;2022-07-29T03:48:38;22.30;81.50
66608;DHT22;53462;39.616;8.824;2022-07-29T03:51:06;22.30;81.10
66608;DHT22;53462;39.616;8.824;2022-07-29T03:53:32;22.40;80.90
66608;DHT22;53462;39.616;8.824;2022-07-29T03:56:02;22.60;80.20
66608;DHT22;53462;39.616;8.824;2022-07-29T03:58:30;22.60;79.80
66608;DHT22;53462;39.616;8.824;2022-07-29T04:00:57;22.70;79.20
66608;DHT22;53462;39.616;8.824;2022-07-29T04:03:24;22.80;78.90
66608;DHT22;53462;39.616;8.824;2022-07-29T04:06:04;22.80;79.00
66608;DHT22;53462;39.616;8.824;2022-07-29T04:08:34;22.70;78.90
66608;DHT22;53462;39.616;8.824;2022-07-29T04:11:01;22.90;79.20
66608;DHT22;53462;39.616;8.824;2022-07-29T04:13:27;23.00;79.60
66608;DHT22;53462;39.616;8.824;2022-07-29T04:15:53;23.00;79.40
66608;DHT22;53462;39.616;8.824;2022-07-29T04:18:19;23.00;79.30
66608;DHT22;53462;39.616;8.824;2022-07-29T04:20:45;22.80;79.30
66608;DHT22;53462;39.616;8.824;2022-07-29T04:23:10;22.60;79.30
66608;DHT22;53462;39.616;8.824;2022-07-29T04:25:40;22.40;79.90
66608;DHT22;53462;39.616;8.824;2022-07-29T04:28:07;22.40;80.00
66608;DHT22;53462;39.616;8.824;2022-07-29T04:30:33;22.60;79.80
66608;DHT22;53462;39.616;8.824;2022-07-29T04:33:01;22.70;79.30
66608;DHT22;53462;39.616;8.824;2022-07-29T04:35:28;22.80;78.70
66608;DHT22;53462;39.616;8.824;2022-07-29T04:37:54;22.70;78.30
66608;DHT22;53462;39.616;8.824;2022-07-29T04:40:20;22.80;78.80
66608;DHT22;53462;39.616;8.824;2022-07-29T04:42:46;22.70;78.70
66608;DHT22;53462;39.616;8.824;2022-07-29T04:45:12;22.40;79.40
66608;DHT22;53462;39.616;8.824;2022-07-29T04:47:38;22.20;78.80
66608;DHT22;53462;39.616;8.824;2022-07-29T04:50:04;22.00;78.80
66608;DHT22;53462;39.616;8.824;2022-07-29T04:52:32;21.90;79.20
66608;DHT22;53462;39.616;8.824;2022-07-29T04:54:58;21.90;79.40
66608;DHT22;53462;39.616;8.824;2022-07-29T04:57:24;21.80;79.90
66608;DHT22;53462;39.616;8.824;2022-07-29T04:59:50;21.90;80.20
66608;DHT22;53462;39.616;8.824;2022-07-29T05:02:16;21.90;80.30
66608;DHT22;53462;39.616;8.824;2022-07-29T05:04:42;21.90;80.10
66608;DHT22;53462;39.616;8.824;2022-07-29T05:07:08;22.00;80.10
66608;DHT22;53462;39.616;8.824;2022-07-29T05:09:34;22.20;80.00
66608;DHT22;53462;39.616;8.824;2022-07-29T05:12:00;22.40;79.90
66608;DHT22;53462;39.616;8.824;2022-07-29T05:14:26;22.40;79.90
66608;DHT22;53462;39.616;8.824;2022-07-29T05:16:52;22.50;79.60
66608;DHT22;53462;39.616;8.824;2022-07-29T05:19:22;22.50;79.40
66608;DHT22;53462;39.616;8.824;2022-07-29T05:21:49;22.50;79.60
66608;DHT22;53462;39.616;8.824;2022-07-29T05:24:15;22.60;79.50
66608;DHT22;53462;39.616;8.824;2022-07-29T05:26:41;22.70;79.70
66608;DHT22;53462;39.616;8.824;2022-07-29T05:29:08;22.80;79.30
66608;DHT22;53462;39.616;8.824;2022-07-29T05:31:34;22.90;78.60
66608;DHT22;53462;39.616;8.824;2022-07-29T05:34:00;23.00;78.80
66608;DHT22;53462;39.616;8.824;2022-07-29T05:36:26;23.20;77.80
66608;DHT22;53462;39.616;8.824;2022-07-29T05:38:52;23.40;76.80
66608;DHT22;53462;39.616;8.824;2022-07-29T05:41:18;23.50;75.90
66608;DHT22;53462;39.616;8.824;2022-07-29T05:43:44;23.70;74.70
66608;DHT22;53462;39.616;8.824;2022-07-29T05:46:10;23.90;74.60
66608;DHT22;53462;39.616;8.824;2022-07-29T05:48:36;24.00;74.30
66608;DHT22;53462;39.616;8.824;2022-07-29T05:51:02;24.20;72.70
66608;DHT22;53462;39.616;8.824;2022-07-29T05:53:28;24.40;71.10
66608;DHT22;53462;39.616;8.824;2022-07-29T05:55:54;24.50;70.50
66608;DHT22;53462;39.616;8.824;2022-07-29T05:58:20;24.70;70.80
66608;DHT22;53462;39.616;8.824;2022-07-29T06:00:46;24.90;70.20
66608;DHT22;53462;39.616;8.824;2022-07-29T06:03:12;25.00;70.20
66608;DHT22;53462;39.616;8.824;2022-07-29T06:05:38;25.20;69.70
66608;DHT22;53462;39.616;8.824;2022-07-29T06:08:04;25.30;69.00
66608;DHT22;53462;39.616;8.824;2022-07-29T06:10:34;25.70;68.20
66608;DHT22;53462;39.616;8.824;2022-07-29T06:13:00;26.20;66.30
66608;DHT22;53462;39.616;8.824;2022-07-29T06:15:26;26.60;65.00
66608;DHT22;53462;39.616;8.824;2022-07-29T06:17:52;26.70;63.40
66608;DHT22;53462;39.616;8.824;2022-07-29T06:20:18;26.60;63.60
66608;DHT22;53462;39.616;8.824;2022-07-29T06:22:44;26.50;64.20
66608;DHT22;53462;39.616;8.824;2022-07-29T06:25:10;26.60;64.20
66608;DHT22;53462;39.616;8.824;2022-07-29T06:27:37;26.80;63.70
66608;DHT22;53462;39.616;8.824;2022-07-29T06:30:03;27.00;63.90
66608;DHT22;53462;39.616;8.824;2022-07-29T06:32:32;27.10;63.10
66608;DHT22;53462;39.616;8.824;2022-07-29T06:34:58;27.30;63.00
66608;DHT22;53462;39.616;8.824;2022-07-29T06:37:24;27.70;62.20
66608;DHT22;53462;39.616;8.824;2022-07-29T06:39:50;27.90;60.60
66608;DHT22;53462;39.616;8.824;2022-07-29T06:42:45;28.00;59.80
66608;DHT22;53462;39.616;8.824;2022-07-29T06:45:11;28.00;59.30
66608;DHT22;53462;39.616;8.824;2022-07-29T06:47:37;28.00;58.40
66608;DHT22;53462;39.616;8.824;2022-07-29T06:50:04;28.40;58.10
66608;DHT22;53462;39.616;8.824;2022-07-29T06:52:30;28.50;57.00
66608;DHT22;53462;39.616;8.824;2022-07-29T06:54:56;28.50;56.10
66608;DHT22;53462;39.616;8.824;2022-07-29T06:57:22;28.50;55.90
66608;DHT22;53462;39.616;8.824;2022-07-29T06:59:48;28.70;56.10
66608;DHT22;53462;39.616;8.824;2022-07-29T07:02:14;28.90;54.90
66608;DHT22;53462;39.616;8.824;2022-07-29T07:04:40;28.70;55.50
66608;DHT22;53462;39.616;8.824;2022-07-29T07:07:06;28.90;55.00
66608;DHT22;53462;39.616;8.824;2022-07-29T07:09:31;29.30;55.60
66608;DHT22;53462;39.616;8.824;2022-07-29T07:11:58;29.40;55.00
66608;DHT22;53462;39.616;8.824;2022-07-29T07:14:24;29.60;54.70
66608;DHT22;53462;39.616;8.824;2022-07-29T07:16:52;29.60;54.10
66608;DHT22;53462;39.616;8.824;2022-07-29T07:19:18;29.70;53.70
66608;DHT22;53462;39.616;8.824;2022-07-29T07:21:44;29.80;53.80
66608;DHT22;53462;39.616;8.824;2022-07-29T07:24:10;30.00;53.50
66608;DHT22;53462;39.616;8.824;2022-07-29T07:26:36;30.40;52.40
66608;DHT22;53462;39.616;8.824;2022-07-29T07:29:03;30.00;52.40
66608;DHT22;53462;39.616;8.824;2022-07-29T07:31:29;30.10;54.10
66608;DHT22;53462;39.616;8.824;2022-07-29T07:33:55;30.10;53.90
66608;DHT22;53462;39.616;8.824;2022-07-29T07:36:21;30.60;53.50
66608;DHT22;53462;39.616;8.824;2022-07-29T07:38:48;30.70;53.70
66608;DHT22;53462;39.616;8.824;2022-07-29T07:41:13;30.70;55.20
66608;DHT22;53462;39.616;8.824;2022-07-29T07:43:39;31.00;55.00
66608;DHT22;53462;39.616;8.824;2022-07-29T07:46:05;30.90;55.60
66608;DHT22;53462;39.616;8.824;2022-07-29T07:48:31;31.00;53.00
66608;DHT22;53462;39.616;8.824;2022-07-29T07:50:57;31.40;54.10
66608;DHT22;53462;39.616;8.824;2022-07-29T07:53:23;31.30;54.60
66608;DHT22;53462;39.616;8.824;2022-07-29T07:55:49;31.60;53.40
66608;DHT22;53462;39.616;8.824;2022-07-29T07:58:15;31.50;53.30
66608;DHT22;53462;39.616;8.824;2022-07-29T08:00:41;31.40;53.80
66608;DHT22;53462;39.616;8.824;2022-07-29T08:03:07;31.40;54.30
66608;DHT22;53462;39.616;8.824;2022-07-29T08:05:34;31.60;53.20
66608;DHT22;53462;39.616;8.824;2022-07-29T08:08:01;31.20;54.40
66608;DHT22;53462;39.616;8.824;2022-07-29T08:10:27;31.70;53.90
66608;DHT22;53462;39.616;8.824;2022-07-29T08:13:12;31.70;50.90
66608;DHT22;53462;39.616;8.824;2022-07-29T08:15:39;31.70;51.00
66608;DHT22;53462;39.616;8.824;2022-07-29T08:18:05;32.10;49.70
66608;DHT22;53462;39.616;8.824;2022-07-29T08:20:31;32.40;49.90
66608;DHT22;53462;39.616;8.824;2022-07-29T08:22:59;32.10;50.40
66608;DHT22;53462;39.616;8.824;2022-07-29T08:25:25;32.40;49.10
66608;DHT22;53462;39.616;8.824;2022-07-29T08:27:51;32.80;47.00
66608;DHT22;53462;39.616;8.824;2022-07-29T08:30:16;33.00;46.30
66608;DHT22;53462;39.616;8.824;2022-07-29T08:32:42;32.80;48.20
66608;DHT22;53462;39.616;8.824;2022-07-29T08:35:08;32.80;47.70
66608;DHT22;53462;39.616;8.824;2022-07-29T08:37:34;33.10;46.80
66608;DHT22;53462;39.616;8.824;2022-07-29T08:40:00;33.20;45.20
66608;DHT22;53462;39.616;8.824;2022-07-29T08:42:26;33.30;45.00
66608;DHT22;53462;39.616;8.824;2022-07-29T08:44:52;33.20;46.30
66608;DHT22;53462;39.616;8.824;2022-07-29T08:47:19;33.20;45.60
66608;DHT22;53462;39.616;8.824;2022-07-29T08:49:45;33.20;44.60
66608;DHT22;53462;39.616;8.824;2022-07-29T08:52:13;33.20;46.30
66608;DHT22;53462;39.616;8.824;2022-07-29T08:54:43;33.30;44.80
66608;DHT22;53462;39.616;8.824;2022-07-29T08:57:12;33.30;44.60
66608;DHT22;53462;39.616;8.824;2022-07-29T08:59:40;33.80;43.20
66608;DHT22;53462;39.616;8.824;2022-07-29T09:02:16;34.00;42.20
66608;DHT22;53462;39.616;8.824;2022-07-29T09:04:44;33.80;42.10
66608;DHT22;53462;39.616;8.824;2022-07-29T09:07:15;33.90;41.40
66608;DHT22;53462;39.616;8.824;2022-07-29T09:09:42;34.10;42.50
66608;DHT22;53462;39.616;8.824;2022-07-29T09:12:09;33.90;41.80
66608;DHT22;53462;39.616;8.824;2022-07-29T09:14:40;33.90;41.30
66608;DHT22;53462;39.616;8.824;2022-07-29T09:17:06;33.60;42.80
66608;DHT22;53462;39.616;8.824;2022-07-29T09:19:34;34.20;41.20
66608;DHT22;53462;39.616;8.824;2022-07-29T09:22:03;34.50;40.20
66608;DHT22;53462;39.616;8.824;2022-07-29T09:24:41;35.20;39.00
66608;DHT22;53462;39.616;8.824;2022-07-29T09:27:09;34.80;39.90
66608;DHT22;53462;39.616;8.824;2022-07-29T09:29:36;34.70;39.10
66608;DHT22;53462;39.616;8.824;2022-07-29T09:32:06;34.80;39.00
66608;DHT22;53462;39.616;8.824;2022-07-29T09:34:33;34.80;37.70
66608;DHT22;53462;39.616;8.824;2022-07-29T09:36:59;34.40;38.90
66608;DHT22;53462;39.616;8.824;2022-07-29T09:39:39;34.40;37.70
66608;DHT22;53462;39.616;8.824;2022-07-29T09:42:11;34.40;38.40
66608;DHT22;53462;39.616;8.824;2022-07-29T09:44:46;34.80;38.90
66608;DHT22;53462;39.616;8.824;2022-07-29T09:47:14;35.30;37.70
66608;DHT22;53462;39.616;8.824;2022-07-29T09:49:58;35.40;37.20
66608;DHT22;53462;39.616;8.824;2022-07-29T09:52:29;35.70;36.20
66608;DHT22;53462;39.616;8.824;2022-07-29T09:55:08;35.90;36.00
66608;DHT22;53462;39.616;8.824;2022-07-29T09:57:35;35.50;36.70
66608;DHT22;53462;39.616;8.824;2022-07-29T10:02:39;35.10;37.20
66608;DHT22;53462;39.616;8.824;2022-07-29T10:05:26;35.60;35.80
66608;DHT22;53462;39.616;8.824;2022-07-29T10:07:57;35.40;36.50
66608;DHT22;53462;39.616;8.824;2022-07-29T10:10:31;35.70;36.30
66608;DHT22;53462;39.616;8.824;2022-07-29T10:13:07;35.70;35.30
66608;DHT22;53462;39.616;8.824;2022-07-29T10:15:36;35.70;35.50
66608;DHT22;53462;39.616;8.824;2022-07-29T10:18:05;36.40;34.50
66608;DHT22;53462;39.616;8.824;2022-07-29T10:20:31;36.90;33.10
66608;DHT22;53462;39.616;8.824;2022-07-29T10:22:57;36.90;32.90
66608;DHT22;53462;39.616;8.824;2022-07-29T10:25:24;36.70;33.50
66608;DHT22;53462;39.616;8.824;2022-07-29T10:27:51;36.50;33.90
66608;DHT22;53462;39.616;8.824;2022-07-29T10:30:18;36.60;33.90
66608;DHT22;53462;39.616;8.824;2022-07-29T10:38:37;37.20;33.00
66608;DHT22;53462;39.616;8.824;2022-07-29T10:46:20;37.30;32.50
66608;DHT22;53462;39.616;8.824;2022-07-29T11:05:24;38.10;30.60
66608;DHT22;53462;39.616;8.824;2022-07-29T11:10:39;38.30;31.10
66608;DHT22;53462;39.616;8.824;2022-07-29T11:13:05;38.20;29.60
66608;DHT22;53462;39.616;8.824;2022-07-29T11:15:54;38.10;29.60
66608;DHT22;53462;39.616;8.824;2022-07-29T11:18:20;38.30;30.10
66608;DHT22;53462;39.616;8.824;2022-07-29T11:20:48;38.40;28.50
66608;DHT22;53462;39.616;8.824;2022-07-29T11:29:01;38.00;28.50
66608;DHT22;53462;39.616;8.824;2022-07-29T11:31:35;38.80;28.00
66608;DHT22;53462;39.616;8.824;2022-07-29T11:39:43;38.60;28.30
66608;DHT22;53462;39.616;8.824;2022-07-29T11:47:47;38.70;27.20
66608;DHT22;53462;39.616;8.824;2022-07-29T11:50:15;38.90;26.70
66608;DHT22;53462;39.616;8.824;2022-07-29T11:52:46;38.90;26.20
66608;DHT22;53462;39.616;8.824;2022-07-29T11:55:19;38.70;27.00
66608;DHT22;53462;39.616;8.824;2022-07-29T11:57:54;38.60;26.40
66608;DHT22;53462;39.616;8.824;2022-07-29T12:00:32;39.80;25.90
66608;DHT22;53462;39.616;8.824;2022-07-29T12:03:00;39.90;25.10
66608;DHT22;53462;39.616;8.824;2022-07-29T12:05:42;39.70;25.70
66608;DHT22;53462;39.616;8.824;2022-07-29T12:08:18;39.80;26.30
66608;DHT22;53462;39.616;8.824;2022-07-29T12:10:46;39.80;25.70
66608;DHT22;53462;39.616;8.824;2022-07-29T12:13:14;40.00;25.90
66608;DHT22;53462;39.616;8.824;2022-07-29T12:15:41;40.30;25.80
66608;DHT22;53462;39.616;8.824;2022-07-29T12:18:15;40.10;26.50
66608;DHT22;53462;39.616;8.824;2022-07-29T12:20:42;39.50;26.60
66608;DHT22;53462;39.616;8.824;2022-07-29T12:23:09;39.20;27.00
66608;DHT22;53462;39.616;8.824;2022-07-29T12:25:38;39.60;26.40
66608;DHT22;53462;39.616;8.824;2022-07-29T12:28:06;39.50;27.30
66608;DHT22;53462;39.616;8.824;2022-07-29T12:30:40;39.90;26.20
66608;DHT22;53462;39.616;8.824;2022-07-29T12:35:42;38.80;28.20
66608;DHT22;53462;39.616;8.824;2022-07-29T12:38:10;39.00;28.00
66608;DHT22;53462;39.616;8.824;2022-07-29T12:40:37;39.40;27.60
66608;DHT22;53462;39.616;8.824;2022-07-29T12:43:13;39.50;28.00
66608;DHT22;53462;39.616;8.824;2022-07-29T12:45:41;39.60;30.50
66608;DHT22;53462;39.616;8.824;2022-07-29T12:48:07;39.40;32.80
66608;DHT22;53462;39.616;8.824;2022-07-29T12:50:57;39.50;33.40
66608;DHT22;53462;39.616;8.824;2022-07-29T12:53:23;40.00;32.50
66608;DHT22;53462;39.616;8.824;2022-07-29T12:55:51;40.50;32.00
66608;DHT22;53462;39.616;8.824;2022-07-29T12:58:30;40.50;31.90
66608;DHT22;53462;39.616;8.824;2022-07-29T13:01:16;40.40;31.50
66608;DHT22;53462;39.616;8.824;2022-07-29T13:03:50;40.60;31.40
66608;DHT22;53462;39.616;8.824;2022-07-29T13:11:32;39.90;32.20
66608;DHT22;53462;39.616;8.824;2022-07-29T13:13:58;39.70;33.10
66608;DHT22;53462;39.616;8.824;2022-07-29T13:16:24;39.70;33.10
66608;DHT22;53462;39.616;8.824;2022-07-29T13:19:06;39.50;33.00
66608;DHT22;53462;39.616;8.824;2022-07-29T13:21:36;39.20;33.80
66608;DHT22;53462;39.616;8.824;2022-07-29T13:24:03;39.30;33.90
66608;DHT22;53462;39.616;8.824;2022-07-29T13:26:30;39.20;34.40
66608;DHT22;53462;39.616;8.824;2022-07-29T13:28:56;38.90;34.20
66608;DHT22;53462;39.616;8.824;2022-07-29T13:31:22;38.80;35.60
66608;DHT22;53462;39.616;8.824;2022-07-29T13:33:48;38.80;35.00
66608;DHT22;53462;39.616;8.824;2022-07-29T13:36:13;38.70;34.80
66608;DHT22;53462;39.616;8.824;2022-07-29T13:38:39;38.30;34.40
66608;DHT22;53462;39.616;8.824;2022-07-29T13:41:05;38.30;35.90
66608;DHT22;53462;39.616;8.824;2022-07-29T13:43:32;38.20;35.50
66608;DHT22;53462;39.616;8.824;2022-07-29T13:45:58;38.10;36.50
66608;DHT22;53462;39.616;8.824;2022-07-29T13:48:23;38.00;36.20
66608;DHT22;53462;39.616;8.824;2022-07-29T13:50:49;37.80;36.80
66608;DHT22;53462;39.616;8.824;2022-07-29T13:53:15;37.90;36.40
66608;DHT22;53462;39.616;8.824;2022-07-29T13:55:42;37.60;36.90
66608;DHT22;53462;39.616;8.824;2022-07-29T13:58:08;37.60;37.00
66608;DHT22;53462;39.616;8.824;2022-07-29T14:00:33;37.60;37.40
66608;DHT22;53462;39.616;8.824;2022-07-29T14:02:59;37.40;37.60
66608;DHT22;53462;39.616;8.824;2022-07-29T14:05:25;37.10;36.80
66608;DHT22;53462;39.616;8.824;2022-07-29T14:07:51;36.90;37.80
66608;DHT22;53462;39.616;8.824;2022-07-29T14:10:17;37.10;37.60
66608;DHT22;53462;39.616;8.824;2022-07-29T14:12:43;37.00;36.90
66608;DHT22;53462;39.616;8.824;2022-07-29T14:15:09;36.90;37.40
66608;DHT22;53462;39.616;8.824;2022-07-29T14:17:35;36.90;36.50
66608;DHT22;53462;39.616;8.824;2022-07-29T14:20:01;36.70;37.30
66608;DHT22;53462;39.616;8.824;2022-07-29T14:22:27;36.50;37.50
66608;DHT22;53462;39.616;8.824;2022-07-29T14:24:53;36.30;37.70
66608;DHT22;53462;39.616;8.824;2022-07-29T14:27:19;36.20;36.90
66608;DHT22;53462;39.616;8.824;2022-07-29T14:29:45;36.10;37.60
66608;DHT22;53462;39.616;8.824;2022-07-29T14:32:10;36.30;37.00
66608;DHT22;53462;39.616;8.824;2022-07-29T14:34:37;35.90;36.40
66608;DHT22;53462;39.616;8.824;2022-07-29T14:37:04;36.00;35.80
66608;DHT22;53462;39.616;8.824;2022-07-29T14:39:31;35.90;35.60
66608;DHT22;53462;39.616;8.824;2022-07-29T14:41:57;35.90;35.40
66608;DHT22;53462;39.616;8.824;2022-07-29T14:44:23;35.90;34.70
66608;DHT22;53462;39.616;8.824;2022-07-29T14:46:50;35.70;34.50
66608;DHT22;53462;39.616;8.824;2022-07-29T14:49:15;35.50;34.80
66608;DHT22;53462;39.616;8.824;2022-07-29T14:51:41;35.50;34.60
66608;DHT22;53462;39.616;8.824;2022-07-29T14:54:08;35.60;34.00
66608;DHT22;53462;39.616;8.824;2022-07-29T14:56:34;35.60;34.30
66608;DHT22;53462;39.616;8.824;2022-07-29T14:59:00;35.80;34.00
66608;DHT22;53462;39.616;8.824;2022-07-29T15:01:26;35.90;33.80
66608;DHT22;53462;39.616;8.824;2022-07-29T15:03:52;35.80;34.40
66608;DHT22;53462;39.616;8.824;2022-07-29T15:06:18;35.70;34.70
66608;DHT22;53462;39.616;8.824;2022-07-29T15:08:44;35.50;34.90
66608;DHT22;53462;39.616;8.824;2022-07-29T15:11:09;35.40;35.00
66608;DHT22;53462;39.616;8.824;2022-07-29T15:13:35;35.20;36.00
66608;DHT22;53462;39.616;8.824;2022-07-29T15:16:01;35.30;36.10
66608;DHT22;53462;39.616;8.824;2022-07-29T15:18:28;35.30;35.60
66608;DHT22;53462;39.616;8.824;2022-07-29T15:20:53;35.20;36.00
66608;DHT22;53462;39.616;8.824;2022-07-29T15:23:19;35.40;35.80
66608;DHT22;53462;39.616;8.824;2022-07-29T15:25:46;35.40;35.70
66608;DHT22;53462;39.616;8.824;2022-07-29T15:28:12;35.20;36.20
66608;DHT22;53462;39.616;8.824;2022-07-29T15:30:38;35.10;36.20
66608;DHT22;53462;39.616;8.824;2022-07-29T15:33:07;35.20;36.40
66608;DHT22;53462;39.616;8.824;2022-07-29T15:35:37;35.20;36.30
66608;DHT22;53462;39.616;8.824;2022-07-29T15:38:03;35.20;35.70
66608;DHT22;53462;39.616;8.824;2022-07-29T15:40:29;35.10;35.70
66608;DHT22;53462;39.616;8.824;2022-07-29T15:42:55;35.10;35.80
66608;DHT22;53462;39.616;8.824;2022-07-29T15:45:21;35.10;35.40
66608;DHT22;53462;39.616;8.824;2022-07-29T15:47:47;35.10;35.40
66608;DHT22;53462;39.616;8.824;2022-07-29T15:50:13;35.10;36.20
66608;DHT22;53462;39.616;8.824;2022-07-29T15:52:44;35.00;36.30
66608;DHT22;53462;39.616;8.824;2022-07-29T15:55:10;34.80;36.70
66608;DHT22;53462;39.616;8.824;2022-07-29T15:57:36;34.70;36.60
66608;DHT22;53462;39.616;8.824;2022-07-29T16:00:03;34.80;36.40
66608;DHT22;53462;39.616;8.824;2022-07-29T16:02:33;34.60;36.40
66608;DHT22;53462;39.616;8.824;2022-07-29T16:04:59;34.50;36.40
66608;DHT22;53462;39.616;8.824;2022-07-29T16:07:25;34.50;36.40
66608;DHT22;53462;39.616;8.824;2022-07-29T16:09:51;34.40;36.10
66608;DHT22;53462;39.616;8.824;2022-07-29T16:12:17;34.50;36.00
66608;DHT22;53462;39.616;8.824;2022-07-29T16:14:43;34.30;36.50
66608;DHT22;53462;39.616;8.824;2022-07-29T16:17:09;34.30;36.80
66608;DHT22;53462;39.616;8.824;2022-07-29T16:19:35;34.30;36.50
66608;DHT22;53462;39.616;8.824;2022-07-29T16:22:01;34.30;36.20
66608;DHT22;53462;39.616;8.824;2022-07-29T16:24:27;34.20;35.80
66608;DHT22;53462;39.616;8.824;2022-07-29T16:26:55;34.00;36.30
66608;DHT22;53462;39.616;8.824;2022-07-29T16:29:21;34.10;35.40
66608;DHT22;53462;39.616;8.824;2022-07-29T16:31:47;34.00;36.60
66608;DHT22;53462;39.616;8.824;2022-07-29T16:34:13;33.90;35.70
66608;DHT22;53462;39.616;8.824;2022-07-29T16:36:39;34.00;34.30
66608;DHT22;53462;39.616;8.824;2022-07-29T16:39:05;33.80;34.60